sensor_id;sensor_type;location;lat;lon;timestamp;temperature;humidity
30186;DHT22;31152;49.190;8.122;2022-09-16T00:00:46;14.40;99.90
30186;DHT22;31152;49.190;8.122;2022-09-16T00:03:14;14.30;99.90
30186;DHT22;31152;49.190;8.122;2022-09-16T00:05:50;14.30;99.90
30186;DHT22;31152;49.190;8.122;2022-09-16T00:08:17;14.30;99.90
30186;DHT22;31152;49.190;8.122;2022-09-16T00:10:45;14.30;99.90
30186;DHT22;31152;49.190;8.122;2022-09-16T00:13:12;14.20;99.90
30186;DHT22;31152;49.190;8.122;2022-09-16T00:15:47;14.30;99.90
30186;DHT22;31152;49.190;8.122;2022-09-16T00:18:14;14.30;99.90
30186;DHT22;31152;49.190;8.122;2022-09-16T00:20:45;14.30;99.90
30186;DHT22;31152;49.190;8.122;2022-09-16T00:23:12;14.30;99.90
30186;DHT22;31152;49.190;8.122;2022-09-16T00:25:39;14.30;99.90
30186;DHT22;31152;49.190;8.122;2022-09-16T00:28:06;14.30;99.90
30186;DHT22;31152;49.190;8.122;2022-09-16T00:30:38;14.20;99.90
30186;DHT22;31152;49.190;8.122;2022-09-16T00:33:08;14.20;99.90
30186;DHT22;31152;49.190;8.122;2022-09-16T00:35:35;14.20;99.90
30186;DHT22;31152;49.190;8.122;2022-09-16T00:38:04;14.20;99.90
30186;DHT22;31152;49.190;8.122;2022-09-16T00:40:31;14.10;99.90
30186;DHT22;31152;49.190;8.122;2022-09-16T00:42:58;14.10;99.90
30186;DHT22;31152;49.190;8.122;2022-09-16T00:45:26;14.10;99.90
30186;DHT22;31152;49.190;8.122;2022-09-16T00:48:05;14.00;99.90
30186;DHT22;31152;49.190;8.122;2022-09-16T00:50:45;14.00;99.90
30186;DHT22;31152;49.190;8.122;2022-09-16T00:53:18;14.00;99.90
30186;DHT22;31152;49.190;8.122;2022-09-16T00:55:46;13.90;99.90
30186;DHT22;31152;49.190;8.122;2022-09-16T01:00:53;13.80;99.90
30186;DHT22;31152;49.190;8.122;2022-09-16T01:03:20;13.80;99.90
30186;DHT22;31152;49.190;8.122;2022-09-16T01:05:48;13.80;99.90
30186;DHT22;31152;49.190;8.122;2022-09-16T01:08:15;13.70;99.90
30186;DHT22;31152;49.190;8.122;2022-09-16T01:10:44;13.70;99.90
30186;DHT22;31152;49.190;8.122;2022-09-16T01:13:13;13.70;99.90
30186;DHT22;31152;49.190;8.122;2022-09-16T01:16:03;13.70;99.90
30186;DHT22;31152;49.190;8.122;2022-09-16T01:18:47;13.80;99.90
30186;DHT22;31152;49.190;8.122;2022-09-16T01:21:25;13.80;99.90
30186;DHT22;31152;49.190;8.122;2022-09-16T01:24:08;13.80;99.90
30186;DHT22;31152;49.190;8.122;2022-09-16T01:32:35;13.80;99.90
30186;DHT22;31152;49.190;8.122;2022-09-16T01:40:51;13.80;99.90
30186;DHT22;31152;49.190;8.122;2022-09-16T01:43:24;13.70;99.90
30186;DHT22;31152;49.190;8.122;2022-09-16T01:46:20;13.70;99.90
30186;DHT22;31152;49.190;8.122;2022-09-16T01:51:50;13.60;99.90
30186;DHT22;31152;49.190;8.122;2022-09-16T01:54:29;13.60;99.90
30186;DHT22;31152;49.190;8.122;2022-09-16T01:57:16;13.60;99.90
30186;DHT22;31152;49.190;8.122;2022-09-16T02:00:05;13.60;99.90
30186;DHT22;31152;49.190;8.122;2022-09-16T02:05:39;13.70;99.90
30186;DHT22;31152;49.190;8.122;2022-09-16T02:08:14;13.80;99.90
30186;DHT22;31152;49.190;8.122;2022-09-16T02:10:48;13.80;99.90
30186;DHT22;31152;49.190;8.122;2022-09-16T02:13:19;13.80;99.90
30186;DHT22;31152;49.190;8.122;2022-09-16T02:15:51;13.80;99.90
30186;DHT22;31152;49.190;8.122;2022-09-16T02:18:26;13.90;99.90
30186;DHT22;31152;49.190;8.122;2022-09-16T02:20:56;13.80;99.90
30186;DHT22;31152;49.190;8.122;2022-09-16T02:23:34;13.80;99.90
30186;DHT22;31152;49.190;8.122;2022-09-16T02:26:04;13.80;99.90
30186;DHT22;31152;49.190;8.122;2022-09-16T02:28:33;13.70;99.90
30186;DHT22;31152;49.190;8.122;2022-09-16T02:31:06;13.70;99.90
30186;DHT22;31152;49.190;8.122;2022-09-16T02:33:59;13.70;99.90
30186;DHT22;31152;49.190;8.122;2022-09-16T02:36:30;13.70;99.90
30186;DHT22;31152;49.190;8.122;2022-09-16T02:39:07;13.70;99.90
30186;DHT22;31152;49.190;8.122;2022-09-16T02:41:37;13.70;99.90
30186;DHT22;31152;49.190;8.122;2022-09-16T02:44:08;13.70;99.90
30186;DHT22;31152;49.190;8.122;2022-09-16T02:49:37;13.80;99.90
30186;DHT22;31152;49.190;8.122;2022-09-16T02:55:28;13.80;99.90
30186;DHT22;31152;49.190;8.122;2022-09-16T02:57:28;13.80;99.90
30186;DHT22;31152;49.190;8.122;2022-09-16T02:59:55;13.90;99.90
30186;DHT22;31152;49.190;8.122;2022-09-16T03:02:24;13.90;99.90
30186;DHT22;31152;49.190;8.122;2022-09-16T03:04:51;13.90;99.90
30186;DHT22;31152;49.190;8.122;2022-09-16T03:07:18;13.90;99.90
30186;DHT22;31152;49.190;8.122;2022-09-16T03:09:46;13.90;99.90
30186;DHT22;31152;49.190;8.122;2022-09-16T03:15:03;14.00;99.90
30186;DHT22;31152;49.190;8.122;2022-09-16T03:31:38;14.00;99.90
30186;DHT22;31152;49.190;8.122;2022-09-16T03:34:19;14.00;99.90
30186;DHT22;31152;49.190;8.122;2022-09-16T03:37:03;14.00;99.90
30186;DHT22;31152;49.190;8.122;2022-09-16T03:39:31;14.10;99.90
30186;DHT22;31152;49.190;8.122;2022-09-16T03:42:03;14.10;99.90
30186;DHT22;31152;49.190;8.122;2022-09-16T03:44:35;14.10;99.90
30186;DHT22;31152;49.190;8.122;2022-09-16T03:47:02;14.10;99.90
30186;DHT22;31152;49.190;8.122;2022-09-16T03:49:29;14.10;99.90
30186;DHT22;31152;49.190;8.122;2022-09-16T03:51:56;14.10;99.90
30186;DHT22;31152;49.190;8.122;2022-09-16T03:54:26;14.00;99.90
30186;DHT22;31152;49.190;8.122;2022-09-16T03:56:53;14.10;99.90
30186;DHT22;31152;49.190;8.122;2022-09-16T03:59:19;14.10;99.90
30186;DHT22;31152;49.190;8.122;2022-09-16T04:01:46;14.00;99.90
30186;DHT22;31152;49.190;8.122;2022-09-16T04:04:13;14.00;99.90
30186;DHT22;31152;49.190;8.122;2022-09-16T04:06:40;14.00;99.90
30186;DHT22;31152;49.190;8.122;2022-09-16T04:09:06;13.90;99.90
30186;DHT22;31152;49.190;8.122;2022-09-16T04:11:34;13.90;99.90
30186;DHT22;31152;49.190;8.122;2022-09-16T04:14:04;13.90;99.90
30186;DHT22;31152;49.190;8.122;2022-09-16T04:16:31;13.90;99.90
30186;DHT22;31152;49.190;8.122;2022-09-16T04:19:00;13.90;99.90
30186;DHT22;31152;49.190;8.122;2022-09-16T04:21:26;13.90;99.90
30186;DHT22;31152;49.190;8.122;2022-09-16T04:23:54;13.90;99.90
30186;DHT22;31152;49.190;8.122;2022-09-16T04:26:21;13.90;99.90
30186;DHT22;31152;49.190;8.122;2022-09-16T04:28:50;13.90;99.90
30186;DHT22;31152;49.190;8.122;2022-09-16T04:31:19;13.90;99.90
30186;DHT22;31152;49.190;8.122;2022-09-16T04:33:46;13.90;99.90
30186;DHT22;31152;49.190;8.122;2022-09-16T04:36:16;13.90;99.90
30186;DHT22;31152;49.190;8.122;2022-09-16T04:38:44;13.90;99.90
30186;DHT22;31152;49.190;8.122;2022-09-16T04:41:14;13.90;99.90
30186;DHT22;31152;49.190;8.122;2022-09-16T04:43:41;13.90;99.90
30186;DHT22;31152;49.190;8.122;2022-09-16T04:46:11;13.90;99.90
30186;DHT22;31152;49.190;8.122;2022-09-16T04:48:38;13.90;99.90
30186;DHT22;31152;49.190;8.122;2022-09-16T04:51:08;13.90;99.90
30186;DHT22;31152;49.190;8.122;2022-09-16T04:53:36;13.90;99.90
30186;DHT22;31152;49.190;8.122;2022-09-16T04:58:45;13.90;99.90
30186;DHT22;31152;49.190;8.122;2022-09-16T05:01:15;13.90;99.90
30186;DHT22;31152;49.190;8.122;2022-09-16T05:03:44;13.90;99.90
30186;DHT22;31152;49.190;8.122;2022-09-16T05:06:14;14.00;99.90
30186;DHT22;31152;49.190;8.122;2022-09-16T05:08:49;14.00;99.90
30186;DHT22;31152;49.190;8.122;2022-09-16T05:11:19;14.10;99.90
30186;DHT22;31152;49.190;8.122;2022-09-16T05:13:46;14.10;99.90
30186;DHT22;31152;49.190;8.122;2022-09-16T05:16:18;14.10;99.90
30186;DHT22;31152;49.190;8.122;2022-09-16T05:18:49;14.00;99.90
30186;DHT22;31152;49.190;8.122;2022-09-16T05:21:19;14.10;99.90
30186;DHT22;31152;49.190;8.122;2022-09-16T05:23:46;14.10;99.90
30186;DHT22;31152;49.190;8.122;2022-09-16T05:26:22;14.00;99.90
30186;DHT22;31152;49.190;8.122;2022-09-16T05:28:49;14.00;99.90
30186;DHT22;31152;49.190;8.122;2022-09-16T05:31:20;14.00;99.90
30186;DHT22;31152;49.190;8.122;2022-09-16T05:34:03;14.00;99.90
30186;DHT22;31152;49.190;8.122;2022-09-16T05:36:32;14.00;99.90
30186;DHT22;31152;49.190;8.122;2022-09-16T05:39:00;14.00;99.90
30186;DHT22;31152;49.190;8.122;2022-09-16T05:41:48;13.90;99.90
30186;DHT22;31152;49.190;8.122;2022-09-16T05:44:15;13.90;99.90
30186;DHT22;31152;49.190;8.122;2022-09-16T05:46:42;13.90;99.90
30186;DHT22;31152;49.190;8.122;2022-09-16T05:49:09;13.90;99.90
30186;DHT22;31152;49.190;8.122;2022-09-16T05:51:38;13.90;99.90
30186;DHT22;31152;49.190;8.122;2022-09-16T05:54:05;13.90;99.90
30186;DHT22;31152;49.190;8.122;2022-09-16T05:56:32;13.90;99.90
30186;DHT22;31152;49.190;8.122;2022-09-16T05:58:59;13.90;99.90
30186;DHT22;31152;49.190;8.122;2022-09-16T06:01:29;13.90;99.90
30186;DHT22;31152;49.190;8.122;2022-09-16T06:03:56;13.90;99.90
30186;DHT22;31152;49.190;8.122;2022-09-16T06:06:32;13.80;99.90
30186;DHT22;31152;49.190;8.122;2022-09-16T06:09:05;13.90;99.90
30186;DHT22;31152;49.190;8.122;2022-09-16T06:11:36;13.90;99.90
30186;DHT22;31152;49.190;8.122;2022-09-16T06:14:06;13.90;99.90
30186;DHT22;31152;49.190;8.122;2022-09-16T06:16:33;13.80;99.90
30186;DHT22;31152;49.190;8.122;2022-09-16T06:19:02;13.90;99.90
30186;DHT22;31152;49.190;8.122;2022-09-16T06:21:29;13.90;99.90
30186;DHT22;31152;49.190;8.122;2022-09-16T06:23:56;13.90;99.90
30186;DHT22;31152;49.190;8.122;2022-09-16T06:26:29;13.90;99.90
30186;DHT22;31152;49.190;8.122;2022-09-16T06:28:55;13.80;99.90
30186;DHT22;31152;49.190;8.122;2022-09-16T06:31:25;13.90;99.90
30186;DHT22;31152;49.190;8.122;2022-09-16T06:33:52;13.90;99.90
30186;DHT22;31152;49.190;8.122;2022-09-16T06:36:22;13.90;99.90
30186;DHT22;31152;49.190;8.122;2022-09-16T06:38:49;14.00;99.90
30186;DHT22;31152;49.190;8.122;2022-09-16T06:41:18;14.00;99.90
30186;DHT22;31152;49.190;8.122;2022-09-16T06:43:45;14.10;99.90
30186;DHT22;31152;49.190;8.122;2022-09-16T06:46:15;14.20;99.90
30186;DHT22;31152;49.190;8.122;2022-09-16T06:48:46;14.20;99.90
30186;DHT22;31152;49.190;8.122;2022-09-16T06:51:16;14.30;99.90
30186;DHT22;31152;49.190;8.122;2022-09-16T06:53:44;14.30;99.90
30186;DHT22;31152;49.190;8.122;2022-09-16T06:56:13;14.30;99.90
30186;DHT22;31152;49.190;8.122;2022-09-16T06:58:43;14.30;99.90
30186;DHT22;31152;49.190;8.122;2022-09-16T07:01:25;14.30;99.90
30186;DHT22;31152;49.190;8.122;2022-09-16T07:03:56;14.40;99.90
30186;DHT22;31152;49.190;8.122;2022-09-16T07:06:28;14.40;99.90
30186;DHT22;31152;49.190;8.122;2022-09-16T07:09:15;14.40;99.90
30186;DHT22;31152;49.190;8.122;2022-09-16T07:11:42;14.50;99.90
30186;DHT22;31152;49.190;8.122;2022-09-16T07:14:09;14.50;99.90
30186;DHT22;31152;49.190;8.122;2022-09-16T07:16:36;14.60;99.90
30186;DHT22;31152;49.190;8.122;2022-09-16T07:19:03;14.60;99.90
30186;DHT22;31152;49.190;8.122;2022-09-16T07:21:30;14.70;99.90
30186;DHT22;31152;49.190;8.122;2022-09-16T07:23:59;14.70;99.90
30186;DHT22;31152;49.190;8.122;2022-09-16T07:26:32;14.80;99.90
30186;DHT22;31152;49.190;8.122;2022-09-16T07:29:02;14.80;99.90
30186;DHT22;31152;49.190;8.122;2022-09-16T07:31:34;14.80;99.90
30186;DHT22;31152;49.190;8.122;2022-09-16T07:34:02;14.90;99.90
30186;DHT22;31152;49.190;8.122;2022-09-16T07:36:34;14.90;99.90
30186;DHT22;31152;49.190;8.122;2022-09-16T07:39:01;15.00;99.90
30186;DHT22;31152;49.190;8.122;2022-09-16T07:41:33;15.10;99.90
30186;DHT22;31152;49.190;8.122;2022-09-16T07:44:01;15.10;99.90
30186;DHT22;31152;49.190;8.122;2022-09-16T07:46:30;15.10;99.90
30186;DHT22;31152;49.190;8.122;2022-09-16T07:48:59;15.20;99.90
30186;DHT22;31152;49.190;8.122;2022-09-16T07:51:27;15.20;99.90
30186;DHT22;31152;49.190;8.122;2022-09-16T07:53:59;15.20;99.90
30186;DHT22;31152;49.190;8.122;2022-09-16T07:56:27;15.20;99.90
30186;DHT22;31152;49.190;8.122;2022-09-16T07:58:55;15.20;99.90
30186;DHT22;31152;49.190;8.122;2022-09-16T08:01:23;15.30;99.90
30186;DHT22;31152;49.190;8.122;2022-09-16T08:03:51;15.30;99.90
30186;DHT22;31152;49.190;8.122;2022-09-16T08:06:20;15.30;99.90
30186;DHT22;31152;49.190;8.122;2022-09-16T08:08:49;15.20;99.90
30186;DHT22;31152;49.190;8.122;2022-09-16T08:11:17;15.30;99.90
30186;DHT22;31152;49.190;8.122;2022-09-16T08:13:49;15.30;99.90
30186;DHT22;31152;49.190;8.122;2022-09-16T08:16:18;15.30;99.90
30186;DHT22;31152;49.190;8.122;2022-09-16T08:18:48;15.40;99.90
30186;DHT22;31152;49.190;8.122;2022-09-16T08:21:26;15.40;99.90
30186;DHT22;31152;49.190;8.122;2022-09-16T08:23:54;15.50;99.90
30186;DHT22;31152;49.190;8.122;2022-09-16T08:26:21;15.50;99.90
30186;DHT22;31152;49.190;8.122;2022-09-16T08:28:51;15.60;99.90
30186;DHT22;31152;49.190;8.122;2022-09-16T08:31:35;15.60;99.90
30186;DHT22;31152;49.190;8.122;2022-09-16T08:34:05;15.70;99.90
30186;DHT22;31152;49.190;8.122;2022-09-16T08:36:32;15.80;99.90
30186;DHT22;31152;49.190;8.122;2022-09-16T08:39:00;15.70;99.90
30186;DHT22;31152;49.190;8.122;2022-09-16T08:47:07;15.50;99.90
30186;DHT22;31152;49.190;8.122;2022-09-16T08:49:44;15.40;99.90
30186;DHT22;31152;49.190;8.122;2022-09-16T08:52:30;15.40;99.90
30186;DHT22;31152;49.190;8.122;2022-09-16T08:55:05;15.40;99.90
30186;DHT22;31152;49.190;8.122;2022-09-16T08:57:38;15.50;99.90
30186;DHT22;31152;49.190;8.122;2022-09-16T09:00:16;15.50;99.90
30186;DHT22;31152;49.190;8.122;2022-09-16T09:05:46;15.50;99.90
30186;DHT22;31152;49.190;8.122;2022-09-16T09:16:56;15.60;99.90
30186;DHT22;31152;49.190;8.122;2022-09-16T09:27:56;15.70;99.90
30186;DHT22;31152;49.190;8.122;2022-09-16T09:30:26;15.70;99.90
30186;DHT22;31152;49.190;8.122;2022-09-16T09:47:48;16.60;99.90
30186;DHT22;31152;49.190;8.122;2022-09-16T09:50:39;17.00;99.90
30186;DHT22;31152;49.190;8.122;2022-09-16T09:56:07;17.60;99.90
30186;DHT22;31152;49.190;8.122;2022-09-16T10:01:26;17.60;99.90
30186;DHT22;31152;49.190;8.122;2022-09-16T10:03:58;17.60;98.70
30186;DHT22;31152;49.190;8.122;2022-09-16T10:06:32;17.40;97.30
30186;DHT22;31152;49.190;8.122;2022-09-16T10:09:00;17.20;97.10
30186;DHT22;31152;49.190;8.122;2022-09-16T10:11:29;17.10;96.10
30186;DHT22;31152;49.190;8.122;2022-09-16T10:13:59;17.10;96.30
30186;DHT22;31152;49.190;8.122;2022-09-16T10:16:36;17.00;96.90
30186;DHT22;31152;49.190;8.122;2022-09-16T10:22:09;17.00;95.50
30186;DHT22;31152;49.190;8.122;2022-09-16T10:24:39;17.00;95.80
30186;DHT22;31152;49.190;8.122;2022-09-16T10:27:36;17.20;96.10
30186;DHT22;31152;49.190;8.122;2022-09-16T10:30:19;17.30;95.40
30186;DHT22;31152;49.190;8.122;2022-09-16T10:33:10;17.50;95.60
30186;DHT22;31152;49.190;8.122;2022-09-16T10:35:39;17.70;95.60
30186;DHT22;31152;49.190;8.122;2022-09-16T10:43:37;18.30;93.90
30186;DHT22;31152;49.190;8.122;2022-09-16T10:46:05;18.50;94.40
30186;DHT22;31152;49.190;8.122;2022-09-16T10:48:33;18.60;93.70
30186;DHT22;31152;49.190;8.122;2022-09-16T10:51:05;18.50;93.90
30186;DHT22;31152;49.190;8.122;2022-09-16T10:53:34;18.50;94.30
30186;DHT22;31152;49.190;8.122;2022-09-16T10:56:16;18.50;94.00
30186;DHT22;31152;49.190;8.122;2022-09-16T10:58:43;18.40;93.90
30186;DHT22;31152;49.190;8.122;2022-09-16T11:01:31;18.40;94.30
30186;DHT22;31152;49.190;8.122;2022-09-16T11:12:16;18.80;90.30
30186;DHT22;31152;49.190;8.122;2022-09-16T11:15:06;19.00;91.30
30186;DHT22;31152;49.190;8.122;2022-09-16T11:25:54;19.10;90.80
30186;DHT22;31152;49.190;8.122;2022-09-16T11:28:34;19.10;91.70
30186;DHT22;31152;49.190;8.122;2022-09-16T11:34:14;19.50;91.60
30186;DHT22;31152;49.190;8.122;2022-09-16T11:42:33;20.30;89.40
30186;DHT22;31152;49.190;8.122;2022-09-16T11:48:12;20.30;87.50
30186;DHT22;31152;49.190;8.122;2022-09-16T12:10:10;19.00;91.20
30186;DHT22;31152;49.190;8.122;2022-09-16T12:12:44;19.30;91.30
30186;DHT22;31152;49.190;8.122;2022-09-16T12:15:28;19.70;90.10
30186;DHT22;31152;49.190;8.122;2022-09-16T12:18:02;20.00;86.20
30186;DHT22;31152;49.190;8.122;2022-09-16T12:20:35;20.10;83.20
30186;DHT22;31152;49.190;8.122;2022-09-16T12:23:25;20.30;84.00
30186;DHT22;31152;49.190;8.122;2022-09-16T12:28:28;20.30;83.10
30186;DHT22;31152;49.190;8.122;2022-09-16T12:31:33;20.40;78.70
30186;DHT22;31152;49.190;8.122;2022-09-16T12:34:07;20.40;80.80
30186;DHT22;31152;49.190;8.122;2022-09-16T12:36:38;20.30;81.90
30186;DHT22;31152;49.190;8.122;2022-09-16T12:39:10;20.00;84.00
30186;DHT22;31152;49.190;8.122;2022-09-16T12:44:29;20.30;79.70
30186;DHT22;31152;49.190;8.122;2022-09-16T12:47:08;20.40;80.60
30186;DHT22;31152;49.190;8.122;2022-09-16T13:03:49;19.30;79.90
30186;DHT22;31152;49.190;8.122;2022-09-16T13:06:24;19.20;80.70
30186;DHT22;31152;49.190;8.122;2022-09-16T13:08:53;19.10;82.50
30186;DHT22;31152;49.190;8.122;2022-09-16T13:11:26;19.00;81.30
30186;DHT22;31152;49.190;8.122;2022-09-16T13:14:23;18.80;81.80
30186;DHT22;31152;49.190;8.122;2022-09-16T13:16:55;18.80;83.60
30186;DHT22;31152;49.190;8.122;2022-09-16T13:19:34;18.80;84.40
30186;DHT22;31152;49.190;8.122;2022-09-16T13:22:23;18.70;85.20
30186;DHT22;31152;49.190;8.122;2022-09-16T13:25:22;18.60;86.10
30186;DHT22;31152;49.190;8.122;2022-09-16T13:28:21;18.60;86.20
30186;DHT22;31152;49.190;8.122;2022-09-16T13:30:53;18.60;86.90
30186;DHT22;31152;49.190;8.122;2022-09-16T13:33:23;18.60;85.10
30186;DHT22;31152;49.190;8.122;2022-09-16T13:38:53;19.20;82.40
30186;DHT22;31152;49.190;8.122;2022-09-16T13:41:40;19.40;80.00
30186;DHT22;31152;49.190;8.122;2022-09-16T13:49:50;19.50;77.40
30186;DHT22;31152;49.190;8.122;2022-09-16T13:52:25;19.40;74.80
30186;DHT22;31152;49.190;8.122;2022-09-16T13:54:54;19.40;75.80
30186;DHT22;31152;49.190;8.122;2022-09-16T13:57:53;19.70;75.80
30186;DHT22;31152;49.190;8.122;2022-09-16T14:06:21;19.20;77.30
30186;DHT22;31152;49.190;8.122;2022-09-16T14:12:16;19.00;81.40
30186;DHT22;31152;49.190;8.122;2022-09-16T14:14:46;19.00;81.80
30186;DHT22;31152;49.190;8.122;2022-09-16T14:17:24;19.00;82.10
30186;DHT22;31152;49.190;8.122;2022-09-16T14:19:53;19.20;82.90
30186;DHT22;31152;49.190;8.122;2022-09-16T14:22:21;19.30;82.60
30186;DHT22;31152;49.190;8.122;2022-09-16T14:24:51;19.30;79.90
30186;DHT22;31152;49.190;8.122;2022-09-16T14:27:38;19.20;80.90
30186;DHT22;31152;49.190;8.122;2022-09-16T14:30:17;19.00;81.20
30186;DHT22;31152;49.190;8.122;2022-09-16T14:32:49;18.90;82.10
30186;DHT22;31152;49.190;8.122;2022-09-16T14:35:23;18.90;82.10
30186;DHT22;31152;49.190;8.122;2022-09-16T14:37:59;18.90;82.20
30186;DHT22;31152;49.190;8.122;2022-09-16T14:40:27;18.80;82.30
30186;DHT22;31152;49.190;8.122;2022-09-16T14:45:26;18.60;85.00
30186;DHT22;31152;49.190;8.122;2022-09-16T14:47:54;18.50;86.10
30186;DHT22;31152;49.190;8.122;2022-09-16T14:50:31;18.40;86.60
30186;DHT22;31152;49.190;8.122;2022-09-16T14:53:06;18.30;87.70
30186;DHT22;31152;49.190;8.122;2022-09-16T14:55:52;18.10;88.10
30186;DHT22;31152;49.190;8.122;2022-09-16T14:58:27;18.10;88.80
30186;DHT22;31152;49.190;8.122;2022-09-16T15:01:05;18.10;88.70
30186;DHT22;31152;49.190;8.122;2022-09-16T15:03:46;18.00;89.40
30186;DHT22;31152;49.190;8.122;2022-09-16T15:06:20;17.90;89.60
30186;DHT22;31152;49.190;8.122;2022-09-16T15:09:04;17.80;90.40
30186;DHT22;31152;49.190;8.122;2022-09-16T15:11:46;17.60;90.50
30186;DHT22;31152;49.190;8.122;2022-09-16T15:14:16;17.50;91.00
30186;DHT22;31152;49.190;8.122;2022-09-16T15:16:48;17.40;91.50
30186;DHT22;31152;49.190;8.122;2022-09-16T15:19:23;17.30;92.70
30186;DHT22;31152;49.190;8.122;2022-09-16T15:21:51;17.10;94.20
30186;DHT22;31152;49.190;8.122;2022-09-16T15:24:25;16.90;94.80
30186;DHT22;31152;49.190;8.122;2022-09-16T15:26:54;16.80;95.80
30186;DHT22;31152;49.190;8.122;2022-09-16T15:31:49;16.60;96.20
30186;DHT22;31152;49.190;8.122;2022-09-16T15:34:20;16.50;96.00
30186;DHT22;31152;49.190;8.122;2022-09-16T15:36:51;16.40;96.00
30186;DHT22;31152;49.190;8.122;2022-09-16T15:42:22;16.30;94.70
30186;DHT22;31152;49.190;8.122;2022-09-16T15:44:58;16.20;95.20
30186;DHT22;31152;49.190;8.122;2022-09-16T15:52:28;16.20;95.80
30186;DHT22;31152;49.190;8.122;2022-09-16T15:55:03;16.10;96.00
30186;DHT22;31152;49.190;8.122;2022-09-16T16:00:11;16.00;96.00
30186;DHT22;31152;49.190;8.122;2022-09-16T16:02:50;16.00;95.90
30186;DHT22;31152;49.190;8.122;2022-09-16T16:05:23;16.00;96.00
30186;DHT22;31152;49.190;8.122;2022-09-16T16:07:59;15.90;96.10
30186;DHT22;31152;49.190;8.122;2022-09-16T16:10:33;16.00;96.70
30186;DHT22;31152;49.190;8.122;2022-09-16T16:13:05;16.00;96.20
30186;DHT22;31152;49.190;8.122;2022-09-16T16:15:36;16.00;95.20
30186;DHT22;31152;49.190;8.122;2022-09-16T16:18:07;16.00;95.40
30186;DHT22;31152;49.190;8.122;2022-09-16T16:20:38;16.20;95.40
30186;DHT22;31152;49.190;8.122;2022-09-16T16:23:05;16.50;95.10
30186;DHT22;31152;49.190;8.122;2022-09-16T16:25:32;17.00;94.20
30186;DHT22;31152;49.190;8.122;2022-09-16T16:27:59;17.10;93.60
30186;DHT22;31152;49.190;8.122;2022-09-16T16:30:26;16.90;94.00
30186;DHT22;31152;49.190;8.122;2022-09-16T16:32:53;16.70;94.20
30186;DHT22;31152;49.190;8.122;2022-09-16T16:35:19;16.70;94.70
30186;DHT22;31152;49.190;8.122;2022-09-16T16:37:48;16.60;94.80
30186;DHT22;31152;49.190;8.122;2022-09-16T16:40:15;16.50;95.10
30186;DHT22;31152;49.190;8.122;2022-09-16T16:42:45;16.40;95.30
30186;DHT22;31152;49.190;8.122;2022-09-16T16:45:12;16.30;95.50
30186;DHT22;31152;49.190;8.122;2022-09-16T16:47:40;16.20;96.10
30186;DHT22;31152;49.190;8.122;2022-09-16T16:50:10;16.10;96.40
30186;DHT22;31152;49.190;8.122;2022-09-16T16:52:37;16.00;96.90
30186;DHT22;31152;49.190;8.122;2022-09-16T16:55:06;15.90;97.40
30186;DHT22;31152;49.190;8.122;2022-09-16T16:57:36;15.90;97.60
30186;DHT22;31152;49.190;8.122;2022-09-16T17:00:07;15.80;97.80
30186;DHT22;31152;49.190;8.122;2022-09-16T17:02:34;15.80;98.30
30186;DHT22;31152;49.190;8.122;2022-09-16T17:05:01;15.80;98.60
30186;DHT22;31152;49.190;8.122;2022-09-16T17:07:27;15.70;98.80
30186;DHT22;31152;49.190;8.122;2022-09-16T17:09:57;15.70;99.10
30186;DHT22;31152;49.190;8.122;2022-09-16T17:12:25;15.60;99.80
30186;DHT22;31152;49.190;8.122;2022-09-16T17:14:54;15.40;99.90
30186;DHT22;31152;49.190;8.122;2022-09-16T17:17:21;15.30;99.90
30186;DHT22;31152;49.190;8.122;2022-09-16T17:19:56;15.10;99.90
30186;DHT22;31152;49.190;8.122;2022-09-16T17:22:23;14.80;99.90
30186;DHT22;31152;49.190;8.122;2022-09-16T17:24:50;14.60;99.90
30186;DHT22;31152;49.190;8.122;2022-09-16T17:27:17;14.40;99.90
30186;DHT22;31152;49.190;8.122;2022-09-16T17:29:46;14.30;99.90
30186;DHT22;31152;49.190;8.122;2022-09-16T17:32:12;14.20;99.90
30186;DHT22;31152;49.190;8.122;2022-09-16T17:34:41;14.10;99.90
30186;DHT22;31152;49.190;8.122;2022-09-16T17:37:08;14.00;99.90
30186;DHT22;31152;49.190;8.122;2022-09-16T17:39:40;13.90;99.90
30186;DHT22;31152;49.190;8.122;2022-09-16T17:42:07;13.80;99.90
30186;DHT22;31152;49.190;8.122;2022-09-16T17:44:33;13.80;99.90
30186;DHT22;31152;49.190;8.122;2022-09-16T17:47:03;13.70;99.90
30186;DHT22;31152;49.190;8.122;2022-09-16T17:49:35;13.70;99.90
30186;DHT22;31152;49.190;8.122;2022-09-16T17:52:02;13.70;99.90
30186;DHT22;31152;49.190;8.122;2022-09-16T17:54:31;13.70;99.90
30186;DHT22;31152;49.190;8.122;2022-09-16T17:56:58;13.60;99.90
30186;DHT22;31152;49.190;8.122;2022-09-16T17:59:25;13.60;99.90
30186;DHT22;31152;49.190;8.122;2022-09-16T18:01:54;13.60;99.90
30186;DHT22;31152;49.190;8.122;2022-09-16T18:04:23;13.60;99.90
30186;DHT22;31152;49.190;8.122;2022-09-16T18:06:50;13.60;99.90
30186;DHT22;31152;49.190;8.122;2022-09-16T18:09:16;13.60;99.90
30186;DHT22;31152;49.190;8.122;2022-09-16T18:11:43;13.50;99.90
30186;DHT22;31152;49.190;8.122;2022-09-16T18:14:12;13.50;99.90
30186;DHT22;31152;49.190;8.122;2022-09-16T18:16:49;13.50;99.90
30186;DHT22;31152;49.190;8.122;2022-09-16T18:19:15;13.40;99.90
30186;DHT22;31152;49.190;8.122;2022-09-16T18:21:42;13.40;99.90
30186;DHT22;31152;49.190;8.122;2022-09-16T18:24:10;13.30;99.90
30186;DHT22;31152;49.190;8.122;2022-09-16T18:26:39;13.30;99.90
30186;DHT22;31152;49.190;8.122;2022-09-16T18:29:09;13.30;99.90
30186;DHT22;31152;49.190;8.122;2022-09-16T18:31:43;13.30;99.90
30186;DHT22;31152;49.190;8.122;2022-09-16T18:34:10;13.20;99.90
30186;DHT22;31152;49.190;8.122;2022-09-16T18:36:37;13.20;99.90
30186;DHT22;31152;49.190;8.122;2022-09-16T18:39:06;13.10;99.90
30186;DHT22;31152;49.190;8.122;2022-09-16T18:41:37;13.00;99.90
30186;DHT22;31152;49.190;8.122;2022-09-16T18:44:10;13.00;99.90
30186;DHT22;31152;49.190;8.122;2022-09-16T18:46:39;13.00;99.90
30186;DHT22;31152;49.190;8.122;2022-09-16T18:49:10;12.90;99.90
30186;DHT22;31152;49.190;8.122;2022-09-16T18:51:40;13.00;99.90
30186;DHT22;31152;49.190;8.122;2022-09-16T18:54:15;12.90;99.90
30186;DHT22;31152;49.190;8.122;2022-09-16T18:56:44;12.90;99.90
30186;DHT22;31152;49.190;8.122;2022-09-16T18:59:16;12.90;99.90
30186;DHT22;31152;49.190;8.122;2022-09-16T19:01:51;12.90;99.90
30186;DHT22;31152;49.190;8.122;2022-09-16T19:04:24;13.00;99.90
30186;DHT22;31152;49.190;8.122;2022-09-16T19:06:52;13.00;99.90
30186;DHT22;31152;49.190;8.122;2022-09-16T19:09:21;13.00;99.90
30186;DHT22;31152;49.190;8.122;2022-09-16T19:11:48;13.00;99.90
30186;DHT22;31152;49.190;8.122;2022-09-16T19:14:15;13.00;99.90
30186;DHT22;31152;49.190;8.122;2022-09-16T19:16:43;13.10;99.90
30186;DHT22;31152;49.190;8.122;2022-09-16T19:19:13;13.10;99.90